Terminal Aerodrome Forecast
Issued by NWS

Home | Current Version | Previous Version | Graphics & Text | Print | Product List | Glossary On
Versions: 1 2 3 4 5 6 7 8 9 10 11 12 13 14 15 16 17
420
FTUS43 KMPX 161120
TAFAXN
TAF
KAXN 161120Z 1612/1712 35009KT P6SM BKN015 BKN050
     FM161400 35011G17KT P6SM BKN025
     FM161800 35011KT P6SM FEW025
     FM170100 01004KT P6SM SKC=

USA.gov is the U.S. government's official web portal to all federal, state and local government web resources and services.